createdAt,value
2016-11-02T00:00:52.579Z,0
2016-11-02T00:01:53.517Z,0
2016-11-02T00:02:54.207Z,0
2016-11-02T00:03:52.395Z,0
2016-11-02T00:04:51.879Z,0
2016-11-02T00:05:53.791Z,0
2016-11-02T00:06:53.027Z,0
2016-11-02T00:07:53.906Z,0
2016-11-02T00:08:52.162Z,0
2016-11-02T00:09:52.404Z,0
2016-11-02T00:10:52.948Z,0
2016-11-02T00:11:53.268Z,0
2016-11-02T00:12:52.755Z,0
2016-11-02T00:13:53.316Z,0
2016-11-02T00:14:53.221Z,0
2016-11-02T00:15:52.811Z,0
2016-11-02T00:16:53.154Z,0
2016-11-02T00:17:52.473Z,0
2016-11-02T00:18:53.270Z,0
2016-11-02T00:19:54.249Z,0
2016-11-02T00:20:53.120Z,0
2016-11-02T00:21:53.618Z,0
2016-11-02T00:22:52.671Z,0
2016-11-02T00:23:53.942Z,0
2016-11-02T00:24:54.040Z,0
2016-11-02T00:25:52.513Z,0
2016-11-02T00:26:52.786Z,0
2016-11-02T00:27:52.690Z,0
2016-11-02T00:28:53.023Z,0
2016-11-02T00:29:53.147Z,0
2016-11-02T00:30:54.369Z,0
2016-11-02T00:31:52.983Z,0
2016-11-02T00:32:53.596Z,0
2016-11-02T00:33:53.210Z,0
2016-11-02T00:34:52.487Z,0
2016-11-02T00:35:53.730Z,0
2016-11-02T00:36:52.463Z,0
2016-11-02T00:37:52.713Z,0
2016-11-02T00:38:52.293Z,0
2016-11-02T00:39:53.945Z,0
2016-11-02T00:40:53.774Z,0
2016-11-02T00:41:53.938Z,0
2016-11-02T00:42:53.213Z,0
2016-11-02T00:43:53.265Z,0
2016-11-02T00:44:53.731Z,0
2016-11-02T00:45:54.018Z,0
2016-11-02T00:46:55.424Z,0
2016-11-02T00:47:52.623Z,0
2016-11-02T00:48:53.906Z,0
2016-11-02T00:49:54.524Z,0
2016-11-02T00:50:55.395Z,0
2016-11-02T00:51:54.315Z,0
2016-11-02T00:52:55.318Z,0
2016-11-02T00:53:53.363Z,0
2016-11-02T00:54:52.790Z,0
2016-11-02T00:55:54.094Z,0
2016-11-02T00:56:53.019Z,0
2016-11-02T00:57:53.346Z,0
2016-11-02T00:58:54.072Z,0
2016-11-02T00:59:54.549Z,0
2016-11-02T01:00:52.843Z,0
2016-11-02T01:01:53.975Z,0
2016-11-02T01:02:54.228Z,0
2016-11-02T01:03:52.807Z,0
2016-11-02T01:04:53.937Z,0
2016-11-02T01:05:53.634Z,0
2016-11-02T01:06:54.219Z,0
2016-11-02T01:07:53.290Z,0
2016-11-02T01:08:54.268Z,0
2016-11-02T01:09:55.338Z,0
2016-11-02T01:10:54.591Z,0
2016-11-02T01:11:53.915Z,0
2016-11-02T01:12:53.729Z,0
2016-11-02T01:13:54.062Z,0
2016-11-02T01:14:53.871Z,0
2016-11-02T01:15:54.203Z,0
2016-11-02T01:16:53.991Z,0
2016-11-02T01:17:54.080Z,0
2016-11-02T01:18:54.578Z,0
2016-11-02T01:19:54.557Z,0
2016-11-02T01:20:53.736Z,0
2016-11-02T01:21:54.728Z,0
2016-11-02T01:22:54.133Z,0
2016-11-02T01:23:54.096Z,0
2016-11-02T01:24:54.069Z,0
2016-11-02T01:25:54.257Z,0
2016-11-02T01:26:54.959Z,0
2016-11-02T01:27:53.986Z,0
2016-11-02T01:28:54.478Z,0
2016-11-02T01:29:54.943Z,0
2016-11-02T01:30:56.034Z,0
2016-11-02T01:31:54.201Z,0
2016-11-02T01:32:54.118Z,0
2016-11-02T01:33:53.819Z,0
2016-11-02T01:34:55.266Z,0
2016-11-02T01:35:54.177Z,0
2016-11-02T01:36:54.139Z,0
2016-11-02T01:37:54.752Z,0
2016-11-02T01:38:54.918Z,0
2016-11-02T01:39:56.589Z,0
2016-11-02T01:40:54.127Z,0
2016-11-02T01:41:55.891Z,0
2016-11-02T01:42:53.572Z,0
2016-11-02T01:43:53.876Z,0
2016-11-02T01:44:54.404Z,0
2016-11-02T01:45:54.494Z,0
2016-11-02T01:46:54.083Z,0
2016-11-02T01:47:54.618Z,0
2016-11-02T01:48:54.034Z,0
2016-11-02T01:49:54.325Z,0
2016-11-02T01:50:54.430Z,0
2016-11-02T01:51:54.909Z,0
2016-11-02T01:52:55.308Z,0
2016-11-02T01:53:55.288Z,0
2016-11-02T01:54:54.766Z,0
2016-11-02T01:55:54.965Z,0
2016-11-02T01:56:54.412Z,0
2016-11-02T01:57:53.993Z,0
2016-11-02T01:58:55.454Z,0
2016-11-02T01:59:54.619Z,0
2016-11-02T02:00:55.357Z,0
2016-11-02T02:01:54.514Z,0
2016-11-02T02:02:54.476Z,0
2016-11-02T02:03:55.011Z,0
2016-11-02T02:04:54.507Z,0
2016-11-02T02:05:54.119Z,0
2016-11-02T02:06:55.038Z,0
2016-11-02T02:07:54.296Z,0
2016-11-02T02:08:55.165Z,0
2016-11-02T02:09:53.865Z,0
2016-11-02T02:10:54.300Z,0
2016-11-02T02:11:55.288Z,0
2016-11-02T02:12:56.911Z,0
2016-11-02T02:13:54.819Z,0
2016-11-02T02:14:54.824Z,0
2016-11-02T02:15:55.387Z,0
2016-11-02T02:16:55.115Z,0
2016-11-02T02:17:54.628Z,0
2016-11-02T02:18:55.358Z,0
2016-11-02T02:19:55.358Z,0
2016-11-02T02:20:55.446Z,0
2016-11-02T02:21:54.747Z,0
2016-11-02T02:22:55.002Z,0
2016-11-02T02:23:54.795Z,0
2016-11-02T02:24:55.574Z,0
2016-11-02T02:25:55.078Z,0
2016-11-02T02:26:54.309Z,0
2016-11-02T02:27:55.832Z,0
2016-11-02T02:28:54.922Z,0
2016-11-02T02:29:55.409Z,0
2016-11-02T02:30:55.438Z,0
2016-11-02T02:31:54.196Z,0
2016-11-02T02:32:55.771Z,0
2016-11-02T02:33:55.510Z,0
2016-11-02T02:34:55.935Z,0
2016-11-02T02:35:54.835Z,0
2016-11-02T02:36:55.246Z,0
2016-11-02T02:37:55.128Z,0
2016-11-02T02:38:55.560Z,0
2016-11-02T02:39:55.287Z,0
2016-11-02T02:40:54.830Z,0
2016-11-02T02:41:55.716Z,0
2016-11-02T02:42:55.346Z,0
2016-11-02T02:43:56.371Z,0
2016-11-02T02:44:54.148Z,0
2016-11-02T02:45:54.867Z,0
2016-11-02T02:46:54.932Z,0
2016-11-02T02:47:57.163Z,0
2016-11-02T02:48:54.155Z,0
2016-11-02T02:49:56.848Z,0
2016-11-02T02:50:54.230Z,0
2016-11-02T02:51:55.319Z,0
2016-11-02T02:52:56.438Z,0
2016-11-02T02:53:55.430Z,0
2016-11-02T02:54:56.219Z,0
2016-11-02T02:55:55.381Z,0
2016-11-02T02:56:54.724Z,0
2016-11-02T02:57:55.825Z,0
2016-11-02T02:58:56.431Z,0
2016-11-02T02:59:55.180Z,0
2016-11-02T03:00:56.142Z,0
2016-11-02T03:01:55.605Z,0
2016-11-02T03:02:54.924Z,0
2016-11-02T03:03:55.974Z,0
2016-11-02T03:04:56.165Z,0
2016-11-02T03:05:55.526Z,0
2016-11-02T03:06:56.937Z,0
2016-11-02T03:07:55.033Z,0
2016-11-02T03:08:55.548Z,0
2016-11-02T03:09:56.180Z,0
2016-11-02T03:10:55.565Z,0
2016-11-02T03:11:55.474Z,0
2016-11-02T03:12:55.306Z,0
2016-11-02T03:13:56.463Z,0
2016-11-02T03:14:54.961Z,0
2016-11-02T03:15:55.506Z,0
2016-11-02T03:16:56.185Z,0
2016-11-02T03:17:55.020Z,0
2016-11-02T03:18:55.921Z,0
2016-11-02T03:19:56.187Z,0
2016-11-02T03:20:55.732Z,0
2016-11-02T03:21:56.460Z,0
2016-11-02T03:22:56.731Z,0
2016-11-02T03:23:56.867Z,0
2016-11-02T03:24:56.422Z,0
2016-11-02T03:25:56.183Z,0
2016-11-02T03:26:56.849Z,0
2016-11-02T03:27:55.665Z,0
2016-11-02T03:28:56.363Z,0
2016-11-02T03:29:56.697Z,0
2016-11-02T03:30:55.516Z,0
2016-11-02T03:31:55.570Z,0
2016-11-02T03:32:56.679Z,0
2016-11-02T03:33:55.957Z,0
2016-11-02T03:34:55.922Z,0
2016-11-02T03:35:56.006Z,0
2016-11-02T03:36:56.567Z,0
2016-11-02T03:37:55.760Z,0
2016-11-02T03:38:55.607Z,0
2016-11-02T03:39:55.602Z,0
2016-11-02T03:40:56.599Z,0
2016-11-02T03:41:57.907Z,0
2016-11-02T03:42:56.746Z,0
2016-11-02T03:43:56.722Z,0
2016-11-02T03:44:56.659Z,0
2016-11-02T03:45:55.746Z,0
2016-11-02T03:46:56.314Z,0
2016-11-02T03:47:57.709Z,0
2016-11-02T03:48:56.431Z,0
2016-11-02T03:49:56.213Z,0
2016-11-02T03:50:56.031Z,0
2016-11-02T03:51:56.584Z,0
2016-11-02T03:52:57.169Z,0
2016-11-02T03:53:56.817Z,0
2016-11-02T03:54:56.907Z,0
2016-11-02T03:55:56.598Z,0
2016-11-02T03:56:56.992Z,0
2016-11-02T03:57:56.784Z,0
2016-11-02T03:58:56.428Z,0
2016-11-02T03:59:56.955Z,0
2016-11-02T04:00:57.410Z,0
2016-11-02T04:01:56.687Z,0
2016-11-02T04:02:57.540Z,0
2016-11-02T04:03:56.535Z,0
2016-11-02T04:04:56.311Z,0
2016-11-02T04:05:56.367Z,0
2016-11-02T04:06:56.264Z,0
2016-11-02T04:07:56.596Z,0
2016-11-02T04:08:56.169Z,0
2016-11-02T04:09:56.477Z,0
2016-11-02T04:10:57.642Z,0
2016-11-02T04:11:56.370Z,0
2016-11-02T04:12:56.614Z,0
2016-11-02T04:13:57.420Z,0
2016-11-02T04:14:56.533Z,0
2016-11-02T04:15:56.814Z,0
2016-11-02T04:16:56.516Z,0
2016-11-02T04:17:56.572Z,0
2016-11-02T04:18:56.274Z,0
2016-11-02T04:19:57.727Z,0
2016-11-02T04:20:57.286Z,0
2016-11-02T04:21:57.243Z,0
2016-11-02T04:22:56.835Z,0
2016-11-02T04:23:56.712Z,0
2016-11-02T04:24:56.479Z,0
2016-11-02T04:25:57.133Z,0
2016-11-02T04:26:57.623Z,0
2016-11-02T04:27:58.279Z,0
2016-11-02T04:28:56.592Z,0
2016-11-02T04:29:56.964Z,0
2016-11-02T04:30:56.699Z,0
2016-11-02T04:31:58.426Z,0
2016-11-02T04:32:56.518Z,0
2016-11-02T04:33:58.521Z,0
2016-11-02T04:34:57.810Z,0
2016-11-02T04:35:57.037Z,0
2016-11-02T04:36:57.861Z,0
2016-11-02T04:37:56.847Z,0
2016-11-02T04:38:58.262Z,0
2016-11-02T04:39:57.047Z,0
2016-11-02T04:40:57.988Z,0
2016-11-02T04:41:57.673Z,0
2016-11-02T04:42:56.747Z,0
2016-11-02T04:43:57.471Z,0
2016-11-02T04:44:58.090Z,0
2016-11-02T04:45:57.815Z,0
2016-11-02T04:46:57.587Z,0
2016-11-02T04:47:57.002Z,0
2016-11-02T04:48:57.128Z,0
2016-11-02T04:49:57.011Z,0
2016-11-02T04:50:57.273Z,0
2016-11-02T04:51:58.333Z,0
2016-11-02T04:52:57.911Z,0
2016-11-02T04:53:58.340Z,0
2016-11-02T04:54:57.997Z,0
2016-11-02T04:55:56.891Z,0
2016-11-02T04:56:56.876Z,0
2016-11-02T04:57:56.409Z,0
2016-11-02T04:58:58.119Z,0
2016-11-02T04:59:58.144Z,0
2016-11-02T05:00:58.456Z,0
2016-11-02T05:01:58.330Z,0
2016-11-02T05:02:58.367Z,0
2016-11-02T05:03:56.997Z,0
2016-11-02T05:04:58.820Z,0
2016-11-02T05:05:58.808Z,0
2016-11-02T05:06:58.822Z,0
2016-11-02T05:07:58.670Z,0
2016-11-02T05:08:57.888Z,0
2016-11-02T05:09:57.945Z,0
2016-11-02T05:10:58.132Z,0
2016-11-02T05:11:58.458Z,0
2016-11-02T05:12:57.209Z,0
2016-11-02T05:13:58.402Z,0
2016-11-02T05:14:58.419Z,0
2016-11-02T05:15:57.883Z,0
2016-11-02T05:16:57.686Z,0
2016-11-02T05:17:58.080Z,0
2016-11-02T05:18:59.227Z,0
2016-11-02T05:19:58.450Z,0
2016-11-02T05:20:57.112Z,0
2016-11-02T05:21:59.397Z,0
2016-11-02T05:22:57.627Z,0
2016-11-02T05:23:58.219Z,0
2016-11-02T05:24:58.468Z,0
2016-11-02T05:25:58.291Z,0
2016-11-02T05:26:58.161Z,0
2016-11-02T05:27:57.669Z,0
2016-11-02T05:28:58.141Z,0
2016-11-02T05:29:58.463Z,0
2016-11-02T05:30:57.945Z,0
2016-11-02T05:31:58.525Z,0
2016-11-02T05:32:58.587Z,0
2016-11-02T05:33:58.300Z,0
2016-11-02T05:34:59.050Z,0
2016-11-02T05:35:59.075Z,0
2016-11-02T05:36:58.556Z,0
2016-11-02T05:37:59.186Z,0
2016-11-02T05:38:58.057Z,0
2016-11-02T05:39:57.973Z,0
2016-11-02T05:40:57.862Z,0
2016-11-02T05:41:58.658Z,0
2016-11-02T05:42:58.023Z,0
2016-11-02T05:43:58.802Z,0
2016-11-02T05:44:58.663Z,0
2016-11-02T05:45:58.432Z,0
2016-11-02T05:46:58.425Z,0
2016-11-02T05:47:58.901Z,0
2016-11-02T05:48:58.267Z,0
2016-11-02T05:49:58.111Z,0
2016-11-02T05:50:59.359Z,0
2016-11-02T05:51:59.324Z,0
2016-11-02T05:52:59.088Z,0
2016-11-02T05:53:58.747Z,0
2016-11-02T05:54:58.128Z,0
2016-11-02T05:55:59.331Z,0
2016-11-02T05:56:58.245Z,0
2016-11-02T05:57:58.361Z,0
2016-11-02T05:58:59.850Z,0
2016-11-02T05:59:58.303Z,0
2016-11-02T06:00:58.242Z,0
2016-11-02T06:01:57.992Z,0
2016-11-02T06:02:58.022Z,0
2016-11-02T06:03:58.402Z,0
2016-11-02T06:04:58.279Z,0
2016-11-02T06:05:58.307Z,0
2016-11-02T06:06:59.287Z,0
2016-11-02T06:07:59.271Z,5
2016-11-02T06:08:58.717Z,5
2016-11-02T06:09:58.779Z,5
2016-11-02T06:10:58.456Z,5
2016-11-02T06:11:59.763Z,5
2016-11-02T06:12:58.564Z,5
2016-11-02T06:13:58.946Z,10
2016-11-02T06:14:57.962Z,10
2016-11-02T06:15:58.916Z,10
2016-11-02T06:16:59.606Z,10
2016-11-02T06:17:58.496Z,10
2016-11-02T06:18:58.222Z,15
2016-11-02T06:19:58.908Z,15
2016-11-02T06:20:58.882Z,20
2016-11-02T06:21:59.337Z,20
2016-11-02T06:22:58.992Z,20
2016-11-02T06:24:00.425Z,25
2016-11-02T06:24:58.620Z,25
2016-11-02T06:25:59.219Z,25
2016-11-02T06:26:57.792Z,30
2016-11-02T06:27:58.271Z,30
2016-11-02T06:28:59.332Z,30
2016-11-02T06:29:58.459Z,25
2016-11-02T06:30:58.727Z,25
2016-11-02T06:31:59.234Z,25
2016-11-02T06:32:59.547Z,25
2016-11-02T06:33:59.357Z,25
2016-11-02T06:34:58.566Z,25
2016-11-02T06:35:59.787Z,30
2016-11-02T06:36:58.831Z,35
2016-11-02T06:37:59.029Z,35
2016-11-02T06:38:58.494Z,35
2016-11-02T06:39:59.184Z,35
2016-11-02T06:40:58.442Z,30
2016-11-02T06:41:59.102Z,30
2016-11-02T06:42:58.806Z,30
2016-11-02T06:43:58.724Z,30
2016-11-02T06:44:59.205Z,30
2016-11-02T06:45:58.890Z,20
2016-11-02T06:46:59.375Z,15
2016-11-02T06:47:58.772Z,20
2016-11-02T06:49:01.610Z,35
2016-11-02T06:49:58.842Z,35
2016-11-02T06:50:58.775Z,35
2016-11-02T06:51:58.960Z,45
2016-11-02T06:52:58.618Z,55
2016-11-02T06:53:59.033Z,65
2016-11-02T06:54:59.672Z,70
2016-11-02T06:55:59.019Z,60
2016-11-02T06:56:59.735Z,50
2016-11-02T06:57:58.627Z,35
2016-11-02T06:58:58.721Z,25
2016-11-02T06:59:58.622Z,20
2016-11-02T07:00:59.153Z,20
2016-11-02T07:01:59.434Z,20
2016-11-02T07:02:59.150Z,25
2016-11-02T07:04:00.009Z,25
2016-11-02T07:04:59.079Z,25
2016-11-02T07:05:58.564Z,30
2016-11-02T07:06:58.904Z,40
2016-11-02T07:07:59.529Z,50
2016-11-02T07:09:00.042Z,65
2016-11-02T07:09:58.735Z,80
2016-11-02T07:11:00.042Z,85
2016-11-02T07:12:00.797Z,95
2016-11-02T07:12:59.437Z,110
2016-11-02T07:14:00.007Z,135
2016-11-02T07:14:59.593Z,155
2016-11-02T07:16:00.670Z,140
2016-11-02T07:17:00.588Z,110
2016-11-02T07:17:59.618Z,85
2016-11-02T07:19:00.003Z,80
2016-11-02T07:19:59.863Z,75
2016-11-02T07:20:59.416Z,80
2016-11-02T07:21:59.393Z,90
2016-11-02T07:23:01.467Z,105
2016-11-02T07:23:58.678Z,110
2016-11-02T07:24:59.194Z,125
2016-11-02T07:26:01.028Z,150
2016-11-02T07:26:59.959Z,175
2016-11-02T07:28:00.456Z,195
2016-11-02T07:28:59.319Z,195
2016-11-02T07:29:59.539Z,195
2016-11-02T07:30:59.736Z,190
2016-11-02T07:32:00.570Z,180
2016-11-02T07:32:59.450Z,170
2016-11-02T07:34:02.291Z,165
2016-11-02T07:34:59.046Z,160
2016-11-02T07:36:00.403Z,160
2016-11-02T07:36:59.574Z,150
2016-11-02T07:38:00.767Z,160
2016-11-02T07:38:59.976Z,180
2016-11-02T07:39:59.203Z,185
2016-11-02T07:40:59.409Z,175
2016-11-02T07:41:59.342Z,160
2016-11-02T07:42:59.824Z,170
2016-11-02T07:43:59.540Z,185
2016-11-02T07:45:00.636Z,165
2016-11-02T07:45:59.580Z,140
2016-11-02T07:46:59.590Z,140
2016-11-02T07:48:02.487Z,155
2016-11-02T07:49:00.560Z,165
2016-11-02T07:50:00.835Z,180
2016-11-02T07:50:59.296Z,185
2016-11-02T07:52:00.966Z,185
2016-11-02T07:52:59.885Z,185
2016-11-02T07:53:59.941Z,185
2016-11-02T07:55:00.982Z,195
2016-11-02T07:56:00.572Z,205
2016-11-02T07:56:59.214Z,205
2016-11-02T07:58:00.373Z,170
2016-11-02T07:59:00.109Z,170
2016-11-02T07:59:59.949Z,160
2016-11-02T08:01:00.169Z,145
2016-11-02T08:02:00.591Z,115
2016-11-02T08:03:00.844Z,100
2016-11-02T08:04:00.669Z,110
2016-11-02T08:05:01.546Z,120
2016-11-02T08:06:00.681Z,115
2016-11-02T08:07:00.143Z,100
2016-11-02T08:08:00.091Z,110
2016-11-02T08:09:00.903Z,115
2016-11-02T08:10:00.013Z,105
2016-11-02T08:10:59.987Z,115
2016-11-02T08:12:02.055Z,110
2016-11-02T08:13:00.952Z,140
2016-11-02T08:14:00.822Z,195
2016-11-02T08:15:00.415Z,195
2016-11-02T08:16:01.792Z,195
2016-11-02T08:17:00.348Z,220
2016-11-02T08:18:02.430Z,245
2016-11-02T08:19:00.795Z,235
2016-11-02T08:20:00.800Z,230
2016-11-02T08:21:01.199Z,245
2016-11-02T08:22:00.755Z,235
2016-11-02T08:23:01.552Z,235
2016-11-02T08:24:01.254Z,255
2016-11-02T08:25:00.665Z,290
2016-11-02T08:26:00.880Z,310
2016-11-02T08:27:00.710Z,330
2016-11-02T08:28:01.048Z,340
2016-11-02T08:29:01.839Z,300
2016-11-02T08:30:00.836Z,295
2016-11-02T08:31:00.925Z,285
2016-11-02T08:32:01.300Z,305
2016-11-02T08:33:01.248Z,355
2016-11-02T08:34:00.383Z,345
2016-11-02T08:35:00.716Z,305
2016-11-02T08:36:01.185Z,335
2016-11-02T08:37:01.433Z,370
2016-11-02T08:38:00.793Z,390
2016-11-02T08:39:01.628Z,345
2016-11-02T08:40:01.624Z,380
2016-11-02T08:41:01.959Z,390
2016-11-02T08:42:01.731Z,385
2016-11-02T08:43:00.468Z,385
2016-11-02T08:44:02.563Z,425
2016-11-02T08:45:01.643Z,435
2016-11-02T08:46:01.696Z,480
2016-11-02T08:47:01.947Z,460
2016-11-02T08:48:01.480Z,460
2016-11-02T08:49:00.917Z,470
2016-11-02T08:50:01.811Z,405
2016-11-02T08:51:00.788Z,395
2016-11-02T08:52:01.690Z,370
2016-11-02T08:53:02.403Z,350
2016-11-02T08:54:02.062Z,365
2016-11-02T08:55:01.180Z,375
2016-11-02T08:56:01.489Z,465
2016-11-02T08:57:01.420Z,455
2016-11-02T08:58:01.487Z,515
2016-11-02T08:59:01.996Z,535
2016-11-02T09:00:01.121Z,465
2016-11-02T09:01:01.296Z,535
2016-11-02T09:02:00.522Z,460
2016-11-02T09:03:02.199Z,480
2016-11-02T09:04:01.767Z,485
2016-11-02T09:05:01.454Z,475
2016-11-02T09:06:02.272Z,510
2016-11-02T09:07:01.904Z,575
2016-11-02T09:08:02.312Z,540
2016-11-02T09:09:01.973Z,480
2016-11-02T09:10:01.855Z,365
2016-11-02T09:11:02.843Z,325
2016-11-02T09:12:00.939Z,330
2016-11-02T09:13:00.789Z,365
2016-11-02T09:14:00.600Z,385
2016-11-02T09:15:01.441Z,415
2016-11-02T09:16:01.225Z,420
2016-11-02T09:17:01.684Z,440
2016-11-02T09:18:02.252Z,440
2016-11-02T09:19:01.758Z,410
2016-11-02T09:20:01.880Z,370
2016-11-02T09:21:01.483Z,350
2016-11-02T09:22:01.222Z,330
2016-11-02T09:23:01.933Z,320
2016-11-02T09:24:02.200Z,320
2016-11-02T09:25:01.669Z,335
2016-11-02T09:26:01.468Z,360
2016-11-02T09:27:00.968Z,415
2016-11-02T09:28:01.446Z,460
2016-11-02T09:29:01.897Z,525
2016-11-02T09:30:02.957Z,505
2016-11-02T09:31:01.872Z,455
2016-11-02T09:32:01.310Z,445
2016-11-02T09:33:02.085Z,460
2016-11-02T09:34:02.642Z,440
2016-11-02T09:35:02.005Z,420
2016-11-02T09:36:01.712Z,390
2016-11-02T09:37:02.198Z,425
2016-11-02T09:38:01.984Z,395
2016-11-02T09:39:02.387Z,435
2016-11-02T09:40:02.654Z,505
2016-11-02T09:41:01.940Z,530
2016-11-02T09:42:03.061Z,460
2016-11-02T09:43:01.291Z,350
2016-11-02T09:44:02.827Z,370
2016-11-02T09:45:01.712Z,430
2016-11-02T09:46:01.641Z,555
2016-11-02T09:47:01.945Z,685
2016-11-02T09:48:01.836Z,695
2016-11-02T09:49:01.471Z,605
2016-11-02T09:50:03.023Z,615
2016-11-02T09:51:01.849Z,645
2016-11-02T09:52:01.720Z,685
2016-11-02T09:53:02.921Z,685
2016-11-02T09:54:01.820Z,700
2016-11-02T09:55:01.939Z,685
2016-11-02T09:56:02.792Z,810
2016-11-02T09:57:03.003Z,920
2016-11-02T09:58:02.866Z,905
2016-11-02T09:59:01.875Z,785
2016-11-02T10:00:01.955Z,690
2016-11-02T10:01:03.487Z,765
2016-11-02T10:02:01.330Z,735
2016-11-02T10:03:02.277Z,690
2016-11-02T10:04:02.822Z,635
2016-11-02T10:05:02.482Z,505
2016-11-02T10:06:01.945Z,450
2016-11-02T10:07:02.037Z,485
2016-11-02T10:08:02.081Z,475
2016-11-02T10:09:01.732Z,385
2016-11-02T10:10:02.532Z,410
2016-11-02T10:11:02.220Z,505
2016-11-02T10:12:03.320Z,515
2016-11-02T10:13:02.008Z,460
2016-11-02T10:14:02.406Z,390
2016-11-02T10:15:02.339Z,365
2016-11-02T10:16:03.079Z,400
2016-11-02T10:17:03.276Z,435
2016-11-02T10:18:03.184Z,370
2016-11-02T10:19:03.654Z,325
2016-11-02T10:20:02.472Z,285
2016-11-02T10:21:02.586Z,280
2016-11-02T10:22:02.544Z,290
2016-11-02T10:23:02.906Z,275
2016-11-02T10:24:02.687Z,235
2016-11-02T10:25:02.679Z,245
2016-11-02T10:26:03.139Z,260
2016-11-02T10:27:03.212Z,315
2016-11-02T10:28:03.736Z,420
2016-11-02T10:29:02.984Z,485
2016-11-02T10:30:02.612Z,505
2016-11-02T10:31:02.543Z,555
2016-11-02T10:32:03.966Z,620
2016-11-02T10:33:03.043Z,750
2016-11-02T10:34:03.270Z,790
2016-11-02T10:35:02.275Z,830
2016-11-02T10:36:03.551Z,955
2016-11-02T10:37:03.527Z,1065
2016-11-02T10:38:03.110Z,940
2016-11-02T10:39:03.021Z,600
2016-11-02T10:40:02.237Z,335
2016-11-02T10:41:03.128Z,255
2016-11-02T10:42:04.070Z,210
2016-11-02T10:43:03.227Z,200
2016-11-02T10:44:03.263Z,190
2016-11-02T10:45:03.170Z,160
2016-11-02T10:46:03.555Z,160
2016-11-02T10:47:03.943Z,190
2016-11-02T10:48:03.700Z,185
2016-11-02T10:49:03.524Z,195
2016-11-02T10:50:03.856Z,215
2016-11-02T10:51:03.104Z,225
2016-11-02T10:52:03.855Z,220
2016-11-02T10:53:03.836Z,245
2016-11-02T10:54:03.257Z,365
2016-11-02T10:55:03.799Z,325
2016-11-02T10:57:04.119Z,240
2016-11-02T10:58:03.900Z,365
2016-11-02T10:59:03.033Z,405
2016-11-02T11:00:03.660Z,430
2016-11-02T11:01:03.304Z,525
2016-11-02T11:02:04.180Z,570
2016-11-02T11:03:05.118Z,540
2016-11-02T11:04:05.219Z,545
2016-11-02T11:05:03.140Z,555
2016-11-02T11:06:04.577Z,480
2016-11-02T11:07:02.803Z,410
2016-11-02T11:08:03.756Z,435
2016-11-02T11:09:04.284Z,520
2016-11-02T11:10:04.431Z,535
2016-11-02T11:11:03.420Z,595
2016-11-02T11:12:03.525Z,765
2016-11-02T11:13:03.732Z,605
2016-11-02T11:14:03.992Z,605
2016-11-02T11:15:03.430Z,625
2016-11-02T11:16:03.660Z,690
2016-11-02T11:17:03.694Z,640
2016-11-02T11:18:03.068Z,545
2016-11-02T11:19:04.317Z,550
2016-11-02T11:20:03.435Z,560
2016-11-02T11:21:04.607Z,570
2016-11-02T11:22:04.094Z,445
2016-11-02T11:23:04.153Z,425
2016-11-02T11:24:03.807Z,455
2016-11-02T11:25:03.659Z,455
2016-11-02T11:26:03.379Z,430
2016-11-02T11:27:04.318Z,400
2016-11-02T11:28:04.290Z,370
2016-11-02T11:29:04.598Z,360
2016-11-02T11:30:03.984Z,445
2016-11-02T11:31:04.994Z,590
2016-11-02T11:32:04.187Z,675
2016-11-02T11:33:03.687Z,565
2016-11-02T11:34:04.315Z,505
2016-11-02T11:35:05.164Z,505
2016-11-02T11:36:04.073Z,435
2016-11-02T11:37:04.503Z,490
2016-11-02T11:38:03.480Z,555
2016-11-02T11:39:03.674Z,605
2016-11-02T11:40:03.685Z,625
2016-11-02T11:41:04.277Z,640
2016-11-02T11:42:04.596Z,580
2016-11-02T11:43:05.014Z,540
2016-11-02T11:44:04.470Z,515
2016-11-02T11:45:04.907Z,565
2016-11-02T11:46:04.993Z,635
2016-11-02T11:47:05.693Z,755
2016-11-02T11:48:04.853Z,730
2016-11-02T11:49:04.995Z,720
2016-11-02T11:50:05.502Z,705
2016-11-02T11:51:03.717Z,655
2016-11-02T11:52:03.757Z,590
2016-11-02T11:53:04.750Z,600
2016-11-02T11:54:05.087Z,505
2016-11-02T11:55:05.084Z,530
2016-11-02T11:56:03.921Z,380
2016-11-02T11:57:03.611Z,350
2016-11-02T11:58:05.520Z,375
2016-11-02T11:59:04.655Z,360
2016-11-02T12:00:04.251Z,360
2016-11-02T12:01:04.261Z,385
2016-11-02T12:02:04.415Z,465
2016-11-02T12:03:04.603Z,455
2016-11-02T12:04:04.540Z,410
2016-11-02T12:05:04.558Z,365
2016-11-02T12:06:04.283Z,265
2016-11-02T12:07:04.811Z,165
2016-11-02T12:08:04.719Z,165
2016-11-02T12:09:04.962Z,250
2016-11-02T12:10:04.455Z,225
2016-11-02T12:11:05.331Z,170
2016-11-02T12:12:05.329Z,185
2016-11-02T12:13:04.413Z,190
2016-11-02T12:14:04.477Z,180
2016-11-02T12:15:04.962Z,135
2016-11-02T12:16:04.731Z,95
2016-11-02T12:17:05.282Z,80
2016-11-02T12:18:04.388Z,90
2016-11-02T12:19:06.150Z,100
2016-11-02T12:20:04.410Z,110
2016-11-02T12:21:04.353Z,125
2016-11-02T12:22:05.427Z,130
2016-11-02T12:23:05.245Z,115
2016-11-02T12:24:04.849Z,110
2016-11-02T12:25:05.592Z,125
2016-11-02T12:26:04.923Z,135
2016-11-02T12:27:05.199Z,125
2016-11-02T12:28:05.606Z,130
2016-11-02T12:29:06.034Z,155
2016-11-02T12:30:04.880Z,145
2016-11-02T12:31:04.939Z,130
2016-11-02T12:32:05.150Z,125
2016-11-02T12:33:06.232Z,130
2016-11-02T12:34:04.699Z,135
2016-11-02T12:35:04.899Z,125
2016-11-02T12:36:05.227Z,95
2016-11-02T12:37:05.653Z,85
2016-11-02T12:38:06.197Z,95
2016-11-02T12:39:04.792Z,95
2016-11-02T12:40:05.589Z,110
2016-11-02T12:41:04.989Z,165
2016-11-02T12:42:04.604Z,195
2016-11-02T12:43:04.732Z,265
2016-11-02T12:44:05.673Z,295
2016-11-02T12:45:05.102Z,310
2016-11-02T12:46:05.674Z,335
2016-11-02T12:47:05.129Z,400
2016-11-02T12:48:05.138Z,455
2016-11-02T12:49:07.067Z,450
2016-11-02T12:50:04.550Z,540
2016-11-02T12:51:06.084Z,615
2016-11-02T12:52:06.331Z,660
2016-11-02T12:53:04.920Z,675
2016-11-02T12:54:05.251Z,580
2016-11-02T12:55:05.164Z,470
2016-11-02T12:56:05.002Z,455
2016-11-02T12:57:05.077Z,425
2016-11-02T12:58:05.656Z,420
2016-11-02T12:59:05.267Z,545
2016-11-02T13:00:06.698Z,555
2016-11-02T13:01:05.974Z,540
2016-11-02T13:02:04.981Z,450
2016-11-02T13:03:06.297Z,350
2016-11-02T13:04:05.633Z,370
2016-11-02T13:05:07.166Z,440
2016-11-02T13:06:05.797Z,545
2016-11-02T13:07:05.239Z,640
2016-11-02T13:08:05.886Z,630
2016-11-02T13:09:06.045Z,565
2016-11-02T13:10:05.852Z,505
2016-11-02T13:11:05.685Z,510
2016-11-02T13:12:06.441Z,455
2016-11-02T13:13:05.880Z,425
2016-11-02T13:14:06.008Z,445
2016-11-02T13:15:05.578Z,435
2016-11-02T13:16:05.089Z,430
2016-11-02T13:17:06.083Z,440
2016-11-02T13:18:05.843Z,435
2016-11-02T13:19:06.964Z,490
2016-11-02T13:20:06.254Z,475
2016-11-02T13:21:06.081Z,390
2016-11-02T13:22:05.344Z,365
2016-11-02T13:23:05.919Z,325
2016-11-02T13:24:06.354Z,305
2016-11-02T13:25:05.791Z,275
2016-11-02T13:26:06.091Z,245
2016-11-02T13:27:05.611Z,285
2016-11-02T13:28:06.171Z,275
2016-11-02T13:29:06.079Z,230
2016-11-02T13:30:06.565Z,230
2016-11-02T13:31:06.900Z,220
2016-11-02T13:32:06.027Z,215
2016-11-02T13:33:07.140Z,215
2016-11-02T13:34:06.556Z,245
2016-11-02T13:35:05.673Z,235
2016-11-02T13:36:05.481Z,220
2016-11-02T13:37:06.105Z,255
2016-11-02T13:38:06.361Z,265
2016-11-02T13:39:07.452Z,225
2016-11-02T13:40:06.364Z,225
2016-11-02T13:41:06.460Z,215
2016-11-02T13:42:06.665Z,215
2016-11-02T13:43:06.142Z,225
2016-11-02T13:44:07.543Z,225
2016-11-02T13:45:06.031Z,255
2016-11-02T13:46:06.160Z,265
2016-11-02T13:47:06.987Z,225
2016-11-02T13:48:07.561Z,225
2016-11-02T13:49:07.230Z,230
2016-11-02T13:50:07.456Z,260
2016-11-02T13:51:08.587Z,255
2016-11-02T13:52:07.379Z,250
2016-11-02T13:53:06.847Z,255
2016-11-02T13:54:06.560Z,260
2016-11-02T13:55:08.410Z,260
2016-11-02T13:56:05.858Z,250
2016-11-02T13:57:06.968Z,245
2016-11-02T13:58:07.515Z,245
2016-11-02T13:59:07.211Z,240
2016-11-02T14:00:07.218Z,215
2016-11-02T14:01:07.642Z,215
2016-11-02T14:02:07.583Z,210
2016-11-02T14:03:08.190Z,210
2016-11-02T14:04:06.540Z,220
2016-11-02T14:05:05.823Z,230
2016-11-02T14:06:07.429Z,240
2016-11-02T14:07:06.831Z,245
2016-11-02T14:08:06.742Z,240
2016-11-02T14:09:07.366Z,215
2016-11-02T14:10:06.686Z,230
2016-11-02T14:11:06.019Z,245
2016-11-02T14:12:07.832Z,250
2016-11-02T14:13:07.548Z,245
2016-11-02T14:14:07.298Z,245
2016-11-02T14:15:07.783Z,265
2016-11-02T14:16:07.194Z,285